Upstream stations:
Downstream station:
SHEF ID: BRIO2 Canadian River at Bridgeport, OK
STATION TYPE:
Regulating: Stage = 15.00, Flow = 8545
STAGE RIV-FLOW
ft cfs
Ccp-Rev Ccp-Rev
(US/Central)
06/05 00:00 12.59 2176
06/05 01:00 12.57 2146
06/05 02:00 12.56 2132
06/05 03:00 12.55 2117
06/05 04:00 12.53 2089
06/05 05:00 12.52 2074
06/05 06:00 12.53 2089
06/05 07:00 12.76 2435
06/05 08:00 13.03 2891
06/05 09:00 13.14 3092
06/05 10:00 13.07 2963
06/05 11:00 12.94 2733
06/05 12:00 12.94 2733
06/05 13:00 12.91 2682
06/05 14:00 12.88 2631
06/05 15:00 12.86 2598
06/05 16:00 12.86 2598
06/05 17:00 12.85 2581
06/05 18:00 12.83 2548
06/05 19:00 12.81 2516
06/05 20:00 12.69 2326
06/05 21:00 12.63 2235
06/05 22:00 10.37 320
06/05 23:00 ---- ----